Skip Navigation LinksHome page > Weather > Current weather Skip Navigation Links

Current Weather

Ronald Reagan Washington National, Washington

For information only: do not use for flight planning or navigation.
Latest weather
Observation time Monday, October 5, 2015 6:52 PM EDT
Local time Monday, October 5, 2015 7:12 PM EDT
Flight conditions Visual Meteorological Conditions
Wind direction East (80°)
Wind speed 7 mph
Visibility 10 mi.
Sky condition
Ceiling unlimited
Cloud layer few clouds 15,000 ft.
Cloud layer scattered clouds 25,000 ft.
Temperature 62°F
Dewpoint 51°F
Altimeter 30.09 in.Hg
Derived measurements
Relative humidity 67%
Density altitude 204 ft.
Sea-level pressure 30.09 in.Hg
Automated weather observing station with precipitation discriminator.
METAR KDCA 052252Z 08006KT 10SM FEW150 SCT250 17/11 A3009 RMK AO2 SLP190 T01670106


Location code

InnerDrive.Weather 4.0.5722.1 Release CLR 4.0.30319.34014
Copyright ©2015 Inner Drive Technology. All rights reserved. Portions Copyright ©1986-2015 David Braverman.

Find weather

Site navigation

Skip Navigation Links

Place info

Page info

PayPal - The safer, easier way to pay online!

Return home.

Copyright ©2015 Inner Drive Technology. Purveyors of fine, hand-crafted computer software. Page printed 2015-10-05T23:12:54 UTC.